createdAt,value
2022-10-28T00:00:40.390Z,1.70
2022-10-28T00:04:12.388Z,1.90
2022-10-28T00:07:36.413Z,1.87
2022-10-28T00:11:00.382Z,1.90
2022-10-28T00:14:25.408Z,1.75
2022-10-28T00:17:49.401Z,1.80
2022-10-28T00:21:21.431Z,1.70
2022-10-28T00:24:45.427Z,1.67
2022-10-28T00:28:09.408Z,1.90
2022-10-28T00:31:35.431Z,1.80
2022-10-28T00:34:58.398Z,1.90
2022-10-28T00:38:22.421Z,1.70
2022-10-28T00:41:49.415Z,2.00
2022-10-28T00:45:15.437Z,1.98
2022-10-28T00:48:38.423Z,1.70
2022-10-28T00:52:06.424Z,1.70
2022-10-28T00:55:31.414Z,1.70
2022-10-28T00:58:55.431Z,1.73
2022-10-28T01:02:18.530Z,1.70
2022-10-28T01:05:44.453Z,1.75
2022-10-28T01:09:08.452Z,2.20
2022-10-28T01:12:47.429Z,1.60
2022-10-28T01:16:14.461Z,2.05
2022-10-28T01:19:56.436Z,2.35
2022-10-28T01:24:01.436Z,1.77
2022-10-28T01:27:26.460Z,1.50
2022-10-28T01:31:18.418Z,1.90
2022-10-28T01:35:07.461Z,1.65
2022-10-28T01:39:03.440Z,2.15
2022-10-28T01:42:37.506Z,2.00
2022-10-28T01:46:13.452Z,2.88
2022-10-28T01:49:47.483Z,1.88
2022-10-28T01:53:13.455Z,1.80
2022-10-28T01:56:49.458Z,1.80
2022-10-28T02:00:13.470Z,2.53
2022-10-28T02:03:37.479Z,1.70
2022-10-28T02:07:05.506Z,1.50
2022-10-28T02:10:32.471Z,1.73
2022-10-28T02:14:27.458Z,1.60
2022-10-28T02:17:59.463Z,1.42
2022-10-28T02:21:33.465Z,1.70
2022-10-28T02:25:06.501Z,1.40
2022-10-28T02:28:39.470Z,1.40
2022-10-28T02:32:11.502Z,1.60
2022-10-28T02:36:06.583Z,1.40
2022-10-28T02:39:34.466Z,1.58
2022-10-28T02:43:09.492Z,1.70
2022-10-28T02:46:32.481Z,1.73
2022-10-28T02:49:59.490Z,1.50
2022-10-28T02:53:33.557Z,1.60
2022-10-28T02:57:30.526Z,1.30
2022-10-28T03:00:59.506Z,1.60
2022-10-28T03:04:23.509Z,1.55
2022-10-28T03:07:47.478Z,1.48
2022-10-28T03:11:12.520Z,1.50
2022-10-28T03:14:36.488Z,1.77
2022-10-28T03:17:59.516Z,1.52
2022-10-28T03:21:23.497Z,1.60
2022-10-28T03:24:47.664Z,1.60
2022-10-28T03:28:12.485Z,1.73
2022-10-28T03:31:36.559Z,1.67
2022-10-28T03:35:00.502Z,1.60
2022-10-28T03:38:24.531Z,1.70
2022-10-28T03:41:48.500Z,1.65
2022-10-28T03:45:11.531Z,1.63
2022-10-28T03:48:35.532Z,1.60
2022-10-28T03:51:58.504Z,1.70
2022-10-28T03:55:22.530Z,1.75
2022-10-28T03:58:46.618Z,1.42
2022-10-28T04:02:10.659Z,1.60
2022-10-28T04:05:29.111Z,1.80
2022-10-28T04:08:47.547Z,1.77
2022-10-28T04:12:11.529Z,1.70
2022-10-28T04:15:35.558Z,1.58
2022-10-28T04:18:59.516Z,1.50
2022-10-28T04:22:23.551Z,1.60
2022-10-28T04:25:47.559Z,1.50
2022-10-28T04:29:11.533Z,1.60
2022-10-28T04:32:35.547Z,1.80
2022-10-28T04:35:58.525Z,1.70
2022-10-28T04:39:22.551Z,1.67
2022-10-28T04:42:46.534Z,1.92
2022-10-28T04:46:13.576Z,1.60
2022-10-28T04:49:38.826Z,1.60
2022-10-28T04:53:02.553Z,1.73
2022-10-28T04:56:25.583Z,1.60
2022-10-28T04:59:50.522Z,1.63
2022-10-28T05:03:16.587Z,1.60
2022-10-28T05:06:40.563Z,1.60
2022-10-28T05:10:04.541Z,1.55
2022-10-28T05:13:28.566Z,1.50
2022-10-28T05:16:51.553Z,1.60
2022-10-28T05:20:15.565Z,1.45
2022-10-28T05:23:39.549Z,1.38
2022-10-28T05:27:03.597Z,1.33
2022-10-28T05:30:28.556Z,1.50
2022-10-28T05:33:53.610Z,1.58
2022-10-28T05:37:17.542Z,1.42
2022-10-28T05:40:43.598Z,1.38
2022-10-28T05:44:06.595Z,1.40
2022-10-28T05:47:30.617Z,1.40
2022-10-28T05:50:54.564Z,1.67
2022-10-28T05:54:19.622Z,1.88
2022-10-28T05:57:43.624Z,1.92
2022-10-28T06:01:06.621Z,1.75
2022-10-28T06:04:30.568Z,1.73
2022-10-28T06:07:55.604Z,1.83
2022-10-28T06:11:18.074Z,2.33
2022-10-28T06:14:41.052Z,2.10
2022-10-28T06:18:04.076Z,1.58
2022-10-28T06:21:28.060Z,1.90
2022-10-28T06:24:52.088Z,2.00
2022-10-28T06:28:16.077Z,2.00
2022-10-28T06:31:40.111Z,1.75
2022-10-28T06:35:03.072Z,1.73
2022-10-28T06:38:27.107Z,1.92
2022-10-28T06:41:51.085Z,2.10
2022-10-28T06:45:15.142Z,2.10
2022-10-28T06:48:40.615Z,2.00
2022-10-28T06:52:03.647Z,2.20
2022-10-28T06:55:27.647Z,2.15
2022-10-28T06:58:50.667Z,2.13
2022-10-28T07:02:14.808Z,2.10
2022-10-28T07:05:39.666Z,2.08
2022-10-28T07:08:57.217Z,2.30
2022-10-28T07:15:45.692Z,2.15
2022-10-28T07:19:10.660Z,2.30
2022-10-28T07:22:34.678Z,2.22
2022-10-28T07:25:59.660Z,1.92
2022-10-28T07:29:23.682Z,2.20
2022-10-28T07:32:47.674Z,2.10
2022-10-28T07:36:12.681Z,2.58
2022-10-28T07:43:04.673Z,1.77
2022-10-28T07:46:27.664Z,2.28
2022-10-28T07:49:51.721Z,2.10
2022-10-28T07:56:44.747Z,2.60
2022-10-28T08:00:08.670Z,2.80
2022-10-28T08:03:38.683Z,2.45
2022-10-28T08:07:03.647Z,2.65
2022-10-28T08:10:27.695Z,2.17
2022-10-28T08:13:51.672Z,2.17
2022-10-28T08:17:15.644Z,3.35
2022-10-28T08:20:38.671Z,2.08
2022-10-28T08:24:02.650Z,1.90
2022-10-28T08:27:25.658Z,2.50
2022-10-28T08:30:57.246Z,2.10
2022-10-28T08:34:30.670Z,2.20
2022-10-28T08:37:53.864Z,2.13
2022-10-28T08:41:29.681Z,2.00
2022-10-28T08:45:06.652Z,2.30
2022-10-28T08:48:37.671Z,2.55
2022-10-28T08:52:10.666Z,1.98
2022-10-28T08:55:43.765Z,2.25
2022-10-28T08:59:08.656Z,2.22
2022-10-28T09:02:38.695Z,2.30
2022-10-28T09:06:04.670Z,2.00
2022-10-28T09:09:37.704Z,1.92
2022-10-28T09:13:01.250Z,1.80
2022-10-28T09:16:31.721Z,2.17
2022-10-28T09:19:58.667Z,1.80
2022-10-28T09:23:25.701Z,2.40
2022-10-28T09:27:16.664Z,2.30
2022-10-28T09:30:51.704Z,2.20
2022-10-28T09:35:05.727Z,1.83
2022-10-28T09:38:46.671Z,1.85
2022-10-28T09:42:11.706Z,1.83
2022-10-28T09:45:40.674Z,2.00
2022-10-28T09:49:08.722Z,2.15
2022-10-28T09:52:39.681Z,2.08
2022-10-28T09:56:05.805Z,1.90
2022-10-28T09:59:30.688Z,1.92
2022-10-28T10:02:53.746Z,2.08
2022-10-28T10:06:27.671Z,2.10
2022-10-28T10:09:51.772Z,2.50
2022-10-28T10:13:18.680Z,4.25
2022-10-28T10:17:05.727Z,2.55
2022-10-28T10:20:29.708Z,3.60
2022-10-28T10:23:53.722Z,2.97
2022-10-28T10:27:29.732Z,3.10
2022-10-28T10:30:59.713Z,2.15
2022-10-28T10:34:38.743Z,2.13
2022-10-28T10:38:03.721Z,2.10
2022-10-28T10:41:26.738Z,2.25
2022-10-28T10:44:51.706Z,2.10
2022-10-28T10:48:28.757Z,2.38
2022-10-28T10:51:51.700Z,2.40
2022-10-28T10:55:18.748Z,2.67
2022-10-28T10:58:48.710Z,2.22
2022-10-28T11:02:13.858Z,2.63
2022-10-28T11:05:38.747Z,3.08
2022-10-28T11:09:03.893Z,3.38
2022-10-28T11:12:43.758Z,3.15
2022-10-28T11:16:20.742Z,3.00
2022-10-28T11:19:45.748Z,2.47
2022-10-28T11:23:35.756Z,2.90
2022-10-28T11:27:25.737Z,3.22
2022-10-28T11:30:58.903Z,3.10
2022-10-28T11:34:53.728Z,3.45
2022-10-28T11:38:27.769Z,3.42
2022-10-28T11:42:00.773Z,3.40
2022-10-28T11:45:38.749Z,3.25
2022-10-28T11:49:04.747Z,3.30
2022-10-28T11:52:51.792Z,3.03
2022-10-28T11:56:50.732Z,2.97
2022-10-28T12:00:50.765Z,3.15
2022-10-28T12:04:14.767Z,3.17
2022-10-28T12:07:40.801Z,3.25
2022-10-28T12:11:14.790Z,3.25
2022-10-28T12:15:00.750Z,3.80
2022-10-28T12:18:47.784Z,3.28
2022-10-28T12:22:42.868Z,3.35
2022-10-28T12:26:08.762Z,3.55
2022-10-28T12:29:53.788Z,3.90
2022-10-28T12:33:42.785Z,3.28
2022-10-28T12:37:15.766Z,3.03
2022-10-28T12:40:46.786Z,3.63
2022-10-28T12:44:24.806Z,3.67
2022-10-28T12:48:00.013Z,4.13
2022-10-28T12:51:43.812Z,3.90
2022-10-28T12:59:12.800Z,3.67
2022-10-28T13:02:41.793Z,3.85
2022-10-28T13:06:26.879Z,4.30
2022-10-28T13:09:53.820Z,3.47
2022-10-28T13:13:56.845Z,3.70
2022-10-28T13:17:50.836Z,3.83
2022-10-28T13:21:38.797Z,4.03
2022-10-28T13:25:10.770Z,3.80
2022-10-28T13:28:35.801Z,3.85
2022-10-28T13:32:02.790Z,3.60
2022-10-28T13:35:38.829Z,3.72
2022-10-28T13:39:11.790Z,3.30
2022-10-28T13:42:35.819Z,3.70
2022-10-28T13:46:08.774Z,3.53
2022-10-28T13:49:43.832Z,3.30
2022-10-28T13:53:42.818Z,3.55
2022-10-28T13:57:07.935Z,3.42
2022-10-28T14:00:34.789Z,4.07
2022-10-28T14:04:05.841Z,3.45
2022-10-28T14:07:29.786Z,3.40
2022-10-28T14:10:53.823Z,3.40
2022-10-28T14:14:18.845Z,3.60
2022-10-28T14:17:53.243Z,3.58
2022-10-28T14:21:17.815Z,3.63
2022-10-28T14:24:46.905Z,3.90
2022-10-28T14:28:09.819Z,3.50
2022-10-28T14:31:34.831Z,3.42
2022-10-28T14:34:58.821Z,3.70
2022-10-28T14:38:40.827Z,3.60
2022-10-28T14:42:24.841Z,3.20
2022-10-28T14:45:59.836Z,3.30
2022-10-28T14:49:41.805Z,3.22
2022-10-28T14:53:06.961Z,3.05
2022-10-28T14:56:40.815Z,3.15
2022-10-28T15:00:05.998Z,3.28
2022-10-28T15:03:29.828Z,2.88
2022-10-28T15:06:57.861Z,2.92
2022-10-28T15:10:45.402Z,2.95
2022-10-28T15:14:08.822Z,3.72
2022-10-28T15:17:34.951Z,3.22
2022-10-28T15:20:58.834Z,3.28
2022-10-28T15:24:28.842Z,3.53
2022-10-28T15:27:54.000Z,3.15
2022-10-28T15:31:18.843Z,2.97
2022-10-28T15:34:44.833Z,3.20
2022-10-28T15:38:08.850Z,3.40
2022-10-28T15:41:37.862Z,3.58
2022-10-28T15:45:02.824Z,3.10
2022-10-28T15:48:27.871Z,3.33
2022-10-28T15:51:50.823Z,3.58
2022-10-28T15:55:15.868Z,3.65
2022-10-28T15:58:55.889Z,3.15
2022-10-28T16:02:56.281Z,3.70
2022-10-28T16:06:20.902Z,3.63
2022-10-28T16:09:46.841Z,3.40
2022-10-28T16:13:11.691Z,3.30
2022-10-28T16:16:43.841Z,2.78
2022-10-28T16:20:26.025Z,3.75
2022-10-28T16:23:53.842Z,3.15
2022-10-28T16:27:33.891Z,3.60
2022-10-28T16:30:57.864Z,2.97
2022-10-28T16:34:24.885Z,3.08
2022-10-28T16:37:54.713Z,3.42
2022-10-28T16:41:21.974Z,3.58
2022-10-28T16:44:45.865Z,3.55
2022-10-28T16:48:08.890Z,3.40
2022-10-28T16:51:31.882Z,3.45
2022-10-28T16:54:55.887Z,3.50
2022-10-28T16:58:21.893Z,3.83
2022-10-28T17:01:49.968Z,2.90
2022-10-28T17:05:14.900Z,3.90
2022-10-28T17:12:21.902Z,3.75
2022-10-28T17:15:45.855Z,3.55
2022-10-28T17:19:08.907Z,3.17
2022-10-28T17:22:27.457Z,3.30
2022-10-28T17:25:44.912Z,3.45
2022-10-28T17:29:08.876Z,3.45
2022-10-28T17:32:31.911Z,3.08
2022-10-28T17:35:55.876Z,3.10
2022-10-28T17:39:22.024Z,3.55
2022-10-28T17:42:49.893Z,3.45
2022-10-28T17:46:20.919Z,3.30
2022-10-28T17:49:44.960Z,3.20
2022-10-28T17:53:08.914Z,3.30
2022-10-28T17:56:32.897Z,3.20
2022-10-28T17:59:57.919Z,3.40
2022-10-28T18:03:30.688Z,3.10
2022-10-28T18:06:50.909Z,3.00
2022-10-28T18:10:13.911Z,3.08
2022-10-28T18:13:45.928Z,2.88
2022-10-28T18:17:09.895Z,2.83
2022-10-28T18:20:32.923Z,2.70
2022-10-28T18:23:49.496Z,2.92
2022-10-28T18:27:06.935Z,3.00
2022-10-28T18:30:30.912Z,2.60
2022-10-28T18:33:54.934Z,3.22
2022-10-28T18:37:19.911Z,3.03
2022-10-28T18:40:43.939Z,2.60
2022-10-28T18:44:14.917Z,2.88
2022-10-28T18:47:39.927Z,2.80
2022-10-28T18:51:17.931Z,2.42
2022-10-28T18:54:41.953Z,2.65
2022-10-28T18:58:05.915Z,2.40
2022-10-28T19:01:33.146Z,2.38
2022-10-28T19:04:56.913Z,2.20
2022-10-28T19:08:21.968Z,2.70
2022-10-28T19:11:46.923Z,2.33
2022-10-28T19:15:09.971Z,2.42
2022-10-28T19:18:33.932Z,2.63
2022-10-28T19:21:58.968Z,2.60
2022-10-28T19:25:22.928Z,2.75
2022-10-28T19:28:50.967Z,2.58
2022-10-28T19:32:14.936Z,2.70
2022-10-28T19:35:37.977Z,2.42
2022-10-28T19:39:02.937Z,2.17
2022-10-28T19:42:25.974Z,2.50
2022-10-28T19:45:50.940Z,2.83
2022-10-28T19:49:15.970Z,2.33
2022-10-28T19:52:40.981Z,2.60
2022-10-28T19:56:06.040Z,2.15
2022-10-28T19:59:29.985Z,1.77
2022-10-28T20:02:53.952Z,1.90
2022-10-28T20:06:24.001Z,1.77
2022-10-28T20:09:47.981Z,1.65
2022-10-28T20:13:13.004Z,2.10
2022-10-28T20:16:36.947Z,1.73
2022-10-28T20:20:01.020Z,2.03
2022-10-28T20:23:18.520Z,1.70
2022-10-28T20:26:41.002Z,1.67
2022-10-28T20:30:07.983Z,1.88
2022-10-28T20:33:32.957Z,2.42
2022-10-28T20:36:58.991Z,1.83
2022-10-28T20:40:22.978Z,1.90
2022-10-28T20:43:46.990Z,2.38
2022-10-28T20:47:10.963Z,2.20
2022-10-28T20:50:34.989Z,2.40
2022-10-28T20:53:59.007Z,2.10
2022-10-28T20:57:22.956Z,2.55
2022-10-28T21:00:47.020Z,2.30
2022-10-28T21:04:11.975Z,2.25
2022-10-28T21:07:36.016Z,2.28
2022-10-28T21:10:59.999Z,2.60
2022-10-28T21:14:24.076Z,2.60
2022-10-28T21:17:47.997Z,2.28
2022-10-28T21:21:13.021Z,2.67
2022-10-28T21:24:31.870Z,2.25
2022-10-28T21:27:49.024Z,2.40
2022-10-28T21:31:20.051Z,2.10
2022-10-28T21:34:44.042Z,2.20
2022-10-28T21:38:09.039Z,2.30
2022-10-28T21:41:35.985Z,2.40
2022-10-28T21:44:59.042Z,2.78
2022-10-28T21:48:22.986Z,2.40
2022-10-28T21:51:47.025Z,2.20
2022-10-28T21:55:20.774Z,1.83
2022-10-28T21:58:53.011Z,2.20
2022-10-28T22:02:17.109Z,2.40
2022-10-28T22:05:41.005Z,2.50
2022-10-28T22:09:11.021Z,2.60
2022-10-28T22:12:35.024Z,2.03
2022-10-28T22:15:59.032Z,2.08
2022-10-28T22:19:25.025Z,2.05
2022-10-28T22:22:49.053Z,2.40
2022-10-28T22:26:10.636Z,2.22
2022-10-28T22:29:28.059Z,2.13
2022-10-28T22:32:51.048Z,2.28
2022-10-28T22:36:16.033Z,2.38
2022-10-28T22:39:40.052Z,2.60
2022-10-28T22:43:05.041Z,2.47
2022-10-28T22:46:29.057Z,2.50
2022-10-28T22:49:53.048Z,2.35
2022-10-28T22:53:18.061Z,2.70
2022-10-28T22:56:41.033Z,2.35
2022-10-28T23:00:05.216Z,2.45
2022-10-28T23:03:29.051Z,2.72
2022-10-28T23:06:53.064Z,2.80
2022-10-28T23:10:17.083Z,2.72
2022-10-28T23:13:41.056Z,2.53
2022-10-28T23:17:05.085Z,2.42
2022-10-28T23:20:29.044Z,2.28
2022-10-28T23:23:56.086Z,2.80
2022-10-28T23:27:13.622Z,2.53
2022-10-28T23:30:31.076Z,2.63
2022-10-28T23:33:55.046Z,2.63
2022-10-28T23:37:12.090Z,2.92
2022-10-28T23:40:36.042Z,2.40
2022-10-28T23:44:01.093Z,2.20
2022-10-28T23:47:25.099Z,2.72
2022-10-28T23:50:49.070Z,2.30
2022-10-28T23:54:13.110Z,2.42
2022-10-28T23:57:37.076Z,2.70
